createdAt,value
2018-06-05T00:02:11.487Z,36.17
2018-06-05T00:04:39.610Z,36.17
2018-06-05T00:07:07.729Z,35.43
2018-06-05T00:09:35.842Z,35.80
2018-06-05T00:12:03.940Z,36.63
2018-06-05T00:14:32.053Z,39.03
2018-06-05T00:17:00.150Z,39.87
2018-06-05T00:19:28.293Z,37.17
2018-06-05T00:21:56.393Z,37.93
2018-06-05T00:24:24.491Z,40.70
2018-06-05T00:26:52.603Z,36.93
2018-06-05T00:29:20.713Z,36.90
2018-06-05T00:31:48.809Z,36.03
2018-06-05T00:34:16.933Z,35.90
2018-06-05T00:36:45.055Z,34.30
2018-06-05T00:39:13.197Z,35.53
2018-06-05T00:41:41.316Z,38.07
2018-06-05T00:44:09.420Z,38.17
2018-06-05T00:46:37.549Z,36.60
2018-06-05T00:49:05.665Z,36.97
2018-06-05T00:51:39.290Z,38.30
2018-06-05T00:54:07.383Z,37.33
2018-06-05T00:56:35.485Z,41.27
2018-06-05T00:59:03.590Z,42.27
2018-06-05T01:01:31.714Z,42.03
2018-06-05T01:03:59.854Z,41.60
2018-06-05T01:06:27.953Z,41.13
2018-06-05T01:08:56.054Z,40.37
2018-06-05T01:11:24.350Z,39.03
2018-06-05T01:13:52.441Z,39.17
2018-06-05T01:16:20.585Z,39.27
2018-06-05T01:18:48.694Z,38.70
2018-06-05T01:21:16.819Z,37.47
2018-06-05T01:23:44.922Z,39.37
2018-06-05T01:26:13.016Z,40.23
2018-06-05T01:28:41.121Z,39.20
2018-06-05T01:31:09.222Z,40.60
2018-06-05T01:33:37.323Z,39.30
2018-06-05T01:36:05.429Z,40.80
2018-06-05T01:38:33.517Z,38.60
2018-06-05T01:41:01.631Z,37.77
2018-06-05T01:43:29.738Z,39.70
2018-06-05T01:45:57.837Z,42.03
2018-06-05T01:48:25.967Z,40.77
2018-06-05T01:50:54.077Z,41.83
2018-06-05T01:53:22.201Z,41.67
2018-06-05T01:55:50.304Z,40.57
2018-06-05T01:58:18.430Z,38.57
2018-06-05T02:00:46.542Z,40.37
2018-06-05T02:03:14.694Z,40.03
2018-06-05T02:05:42.798Z,38.20
2018-06-05T02:08:10.937Z,41.03
2018-06-05T02:10:39.037Z,38.77
2018-06-05T02:13:07.153Z,38.10
2018-06-05T02:15:35.298Z,37.67
2018-06-05T02:18:03.419Z,36.67
2018-06-05T02:20:31.513Z,36.67
2018-06-05T02:22:59.633Z,37.23
2018-06-05T02:25:28.319Z,33.97
2018-06-05T02:27:56.425Z,32.27
2018-06-05T02:30:24.534Z,31.70
2018-06-05T02:32:52.642Z,30.17
2018-06-05T02:35:20.974Z,31.33
2018-06-05T02:37:49.106Z,30.23
2018-06-05T02:40:17.210Z,31.17
2018-06-05T02:42:45.342Z,30.83
2018-06-05T02:45:13.444Z,31.37
2018-06-05T02:47:41.566Z,32.20
2018-06-05T02:50:09.673Z,32.70
2018-06-05T02:52:37.774Z,34.23
2018-06-05T02:55:05.866Z,33.83
2018-06-05T02:57:33.982Z,33.53
2018-06-05T03:00:02.087Z,35.87
2018-06-05T03:02:30.185Z,37.13
2018-06-05T03:04:58.289Z,36.63
2018-06-05T03:07:26.417Z,37.67
2018-06-05T03:09:54.528Z,37.63
2018-06-05T03:12:22.626Z,39.30
2018-06-05T03:14:50.734Z,39.53
2018-06-05T03:17:18.833Z,39.03
2018-06-05T03:19:46.931Z,36.57
2018-06-05T03:22:15.071Z,37.13
2018-06-05T03:24:43.182Z,36.23
2018-06-05T03:27:11.286Z,37.00
2018-06-05T03:29:39.386Z,35.47
2018-06-05T03:32:07.592Z,31.97
2018-06-05T03:34:35.722Z,30.30
2018-06-05T03:37:03.817Z,30.23
2018-06-05T03:39:31.917Z,28.43
2018-06-05T03:42:00.015Z,27.03
2018-06-05T03:44:28.146Z,25.43
2018-06-05T03:46:56.241Z,26.10
2018-06-05T03:49:24.421Z,24.83
2018-06-05T03:51:52.517Z,26.03
2018-06-05T03:54:20.645Z,24.67
2018-06-05T03:56:48.741Z,24.80
2018-06-05T03:59:16.859Z,24.80
2018-06-05T04:01:44.960Z,25.73
2018-06-05T04:04:13.075Z,27.33
2018-06-05T04:06:41.210Z,24.53
2018-06-05T04:09:09.347Z,25.20
2018-06-05T04:11:37.454Z,25.33
2018-06-05T04:14:05.567Z,25.77
2018-06-05T04:16:33.671Z,24.83
2018-06-05T04:19:01.799Z,24.73
2018-06-05T04:21:29.918Z,24.87
2018-06-05T04:23:58.017Z,26.03
2018-06-05T04:26:26.110Z,26.27
2018-06-05T04:28:54.214Z,26.50
2018-06-05T04:31:22.333Z,25.60
2018-06-05T04:33:50.433Z,26.47
2018-06-05T04:36:18.534Z,25.77
2018-06-05T04:38:46.653Z,25.57
2018-06-05T04:41:14.759Z,26.27
2018-06-05T04:43:42.899Z,27.27
2018-06-05T04:46:11.013Z,25.53
2018-06-05T04:48:39.113Z,26.10
2018-06-05T04:51:07.214Z,24.63
2018-06-05T04:53:35.326Z,25.63
2018-06-05T04:56:03.454Z,24.07
2018-06-05T04:58:31.561Z,22.50
2018-06-05T05:00:59.658Z,23.77
2018-06-05T05:03:27.814Z,24.93
2018-06-05T05:05:55.954Z,26.53
2018-06-05T05:08:24.059Z,26.97
2018-06-05T05:10:52.165Z,26.87
2018-06-05T05:13:20.283Z,28.57
2018-06-05T05:15:48.394Z,29.27
2018-06-05T05:18:16.493Z,32.73
2018-06-05T05:20:44.593Z,33.60
2018-06-05T05:23:12.700Z,36.00
2018-06-05T05:25:40.817Z,34.57
2018-06-05T05:28:08.925Z,33.93
2018-06-05T05:30:37.026Z,30.90
2018-06-05T05:33:05.218Z,31.30
2018-06-05T05:35:33.326Z,31.13
2018-06-05T05:38:01.525Z,31.10
2018-06-05T05:40:29.634Z,31.20
2018-06-05T05:42:57.733Z,33.13
2018-06-05T05:45:25.980Z,32.30
2018-06-05T05:47:54.087Z,31.03
2018-06-05T05:50:22.225Z,31.37
2018-06-05T05:52:50.317Z,30.90
2018-06-05T05:55:18.441Z,30.30
2018-06-05T05:57:46.554Z,26.97
2018-06-05T06:00:14.682Z,27.87
2018-06-05T06:02:42.787Z,29.30
2018-06-05T06:05:10.905Z,29.10
2018-06-05T06:07:39.046Z,30.00
2018-06-05T06:10:07.161Z,29.63
2018-06-05T06:12:35.255Z,29.23
2018-06-05T06:15:03.677Z,30.60
2018-06-05T06:17:31.790Z,29.60
2018-06-05T06:19:59.902Z,30.30
2018-06-05T06:22:27.997Z,30.10
2018-06-05T06:24:56.090Z,32.03
2018-06-05T06:27:24.192Z,30.23
2018-06-05T06:29:52.325Z,28.97
2018-06-05T06:32:20.465Z,32.07
2018-06-05T06:34:48.561Z,31.53
2018-06-05T06:37:16.665Z,30.63
2018-06-05T06:39:44.783Z,32.57
2018-06-05T06:42:12.906Z,30.83
2018-06-05T06:44:41.010Z,30.27
2018-06-05T06:47:09.105Z,30.20
2018-06-05T06:49:37.207Z,30.90
2018-06-05T06:52:05.310Z,30.53
2018-06-05T06:54:33.416Z,31.27
2018-06-05T06:57:01.533Z,30.50
2018-06-05T06:59:29.634Z,31.60
2018-06-05T07:01:57.732Z,31.17
2018-06-05T07:04:25.841Z,31.37
2018-06-05T07:06:53.980Z,31.87
2018-06-05T07:09:22.090Z,33.50
2018-06-05T07:11:50.206Z,32.20
2018-06-05T07:14:18.319Z,32.50
2018-06-05T07:16:46.425Z,33.53
2018-06-05T07:19:14.539Z,33.53
2018-06-05T07:21:42.648Z,33.03
2018-06-05T07:24:10.763Z,35.17
2018-06-05T07:26:38.878Z,34.10
2018-06-05T07:29:06.973Z,33.50
2018-06-05T07:31:35.080Z,31.63
2018-06-05T07:34:03.205Z,31.90
2018-06-05T07:36:31.310Z,31.07
2018-06-05T07:38:59.422Z,29.87
2018-06-05T07:41:27.542Z,32.27
2018-06-05T07:43:55.653Z,33.27
2018-06-05T07:46:23.773Z,34.57
2018-06-05T07:48:51.878Z,34.70
2018-06-05T07:51:20.002Z,35.10
2018-06-05T07:53:48.118Z,31.17
2018-06-05T07:56:16.593Z,29.37
2018-06-05T07:58:44.713Z,29.43
2018-06-05T08:01:12.837Z,29.70
2018-06-05T08:03:40.954Z,29.33
2018-06-05T08:06:09.063Z,27.60
2018-06-05T08:08:37.180Z,28.03
2018-06-05T08:11:05.297Z,30.43
2018-06-05T08:13:33.408Z,27.10
2018-06-05T08:16:01.527Z,26.57
2018-06-05T08:18:29.674Z,26.23
2018-06-05T08:20:57.766Z,24.60
2018-06-05T08:23:25.870Z,22.30
2018-06-05T08:25:53.977Z,21.43
2018-06-05T08:28:22.085Z,22.80
2018-06-05T08:30:50.194Z,21.20
2018-06-05T08:33:18.305Z,24.27
2018-06-05T08:35:46.425Z,22.00
2018-06-05T08:38:14.530Z,23.03
2018-06-05T08:40:42.633Z,23.97
2018-06-05T08:43:10.739Z,23.80
2018-06-05T08:45:38.875Z,23.93
2018-06-05T08:48:06.982Z,22.70
2018-06-05T08:50:35.131Z,21.90
2018-06-05T08:53:03.233Z,22.17
2018-06-05T08:55:31.339Z,22.77
2018-06-05T08:57:59.434Z,21.97
2018-06-05T09:00:27.554Z,21.93
2018-06-05T09:02:56.359Z,21.87
2018-06-05T09:05:24.519Z,19.50
2018-06-05T09:07:52.609Z,20.60
2018-06-05T09:10:20.721Z,22.40
2018-06-05T09:12:48.881Z,21.37
2018-06-05T09:15:16.966Z,22.33
2018-06-05T09:17:45.082Z,22.03
2018-06-05T09:20:13.186Z,20.73
2018-06-05T09:22:41.305Z,21.60
2018-06-05T09:25:09.426Z,21.57
2018-06-05T09:27:37.538Z,21.57
2018-06-05T09:30:05.645Z,22.23
2018-06-05T09:32:33.771Z,22.47
2018-06-05T09:35:01.890Z,21.60
2018-06-05T09:37:29.998Z,22.73
2018-06-05T09:39:58.115Z,20.80
2018-06-05T09:42:26.242Z,23.00
2018-06-05T09:44:54.366Z,21.33
2018-06-05T09:47:22.485Z,21.43
2018-06-05T09:49:51.443Z,20.43
2018-06-05T09:52:19.584Z,20.10
2018-06-05T09:54:47.753Z,20.03
2018-06-05T09:57:15.873Z,19.30
2018-06-05T09:59:44.004Z,19.50
2018-06-05T10:02:12.118Z,20.20
2018-06-05T10:04:40.244Z,20.00
2018-06-05T10:07:08.359Z,21.67
2018-06-05T10:09:36.459Z,20.13
2018-06-05T10:12:04.586Z,19.70
2018-06-05T10:14:32.709Z,20.07
2018-06-05T10:17:00.870Z,20.03
2018-06-05T10:19:28.982Z,19.37
2018-06-05T10:21:57.109Z,18.53
2018-06-05T10:24:25.217Z,18.63
2018-06-05T10:26:53.345Z,20.47
2018-06-05T10:29:21.441Z,18.93
2018-06-05T10:31:49.547Z,19.13
2018-06-05T10:34:17.660Z,19.70
2018-06-05T10:36:45.773Z,20.17
2018-06-05T10:39:13.893Z,20.77
2018-06-05T10:41:42.022Z,19.97
2018-06-05T10:44:10.133Z,20.87
2018-06-05T10:46:38.270Z,19.83
2018-06-05T10:49:06.389Z,19.87
2018-06-05T10:51:34.506Z,19.87
2018-06-05T10:54:02.634Z,19.63
2018-06-05T10:56:30.745Z,19.60
2018-06-05T10:58:58.853Z,18.30
2018-06-05T11:01:26.986Z,18.80
2018-06-05T11:03:55.121Z,19.10
2018-06-05T11:06:23.249Z,19.37
2018-06-05T11:08:51.373Z,19.10
2018-06-05T11:11:19.546Z,19.27
2018-06-05T11:13:47.682Z,20.83
2018-06-05T11:16:15.903Z,19.37
2018-06-05T11:18:44.033Z,20.17
2018-06-05T11:21:12.142Z,19.60
2018-06-05T11:23:40.253Z,20.77
2018-06-05T11:26:08.369Z,20.27
2018-06-05T11:28:36.478Z,21.33
2018-06-05T11:31:04.597Z,21.90
2018-06-05T11:33:32.709Z,20.00
2018-06-05T11:36:01.452Z,20.73
2018-06-05T11:38:29.981Z,21.70
2018-06-05T11:40:58.105Z,21.20
2018-06-05T11:43:26.229Z,21.37
2018-06-05T11:45:54.330Z,23.77
2018-06-05T11:48:22.481Z,21.50
2018-06-05T11:50:50.590Z,24.43
2018-06-05T11:53:18.692Z,25.07
2018-06-05T11:55:46.798Z,23.80
2018-06-05T11:58:14.921Z,24.83
2018-06-05T12:00:43.060Z,24.00
2018-06-05T12:03:11.173Z,24.87
2018-06-05T12:05:39.689Z,23.63
2018-06-05T12:08:07.801Z,23.10
2018-06-05T12:10:35.894Z,21.77
2018-06-05T12:13:04.017Z,22.90
2018-06-05T12:15:32.109Z,22.93
2018-06-05T12:18:00.213Z,22.17
2018-06-05T12:20:28.329Z,23.17
2018-06-05T12:22:56.445Z,24.13
2018-06-05T12:25:24.557Z,23.07
2018-06-05T12:27:52.674Z,23.03
2018-06-05T12:30:20.789Z,22.90
2018-06-05T12:32:48.959Z,23.33
2018-06-05T12:35:17.055Z,23.13
2018-06-05T12:37:45.165Z,23.50
2018-06-05T12:40:13.277Z,23.33
2018-06-05T12:42:41.397Z,24.30
2018-06-05T12:45:09.509Z,23.50
2018-06-05T12:47:37.610Z,22.50
2018-06-05T12:50:05.717Z,22.87
2018-06-05T12:52:33.834Z,22.03
2018-06-05T12:55:01.954Z,22.07
2018-06-05T12:57:30.071Z,22.30
2018-06-05T12:59:58.697Z,23.33
2018-06-05T13:02:26.806Z,21.73
2018-06-05T13:04:54.933Z,22.90
2018-06-05T13:07:23.035Z,22.73
2018-06-05T13:09:51.133Z,22.23
2018-06-05T13:12:19.253Z,22.37
2018-06-05T13:14:50.227Z,21.90
2018-06-05T13:17:18.381Z,24.00
2018-06-05T13:19:46.505Z,23.40
2018-06-05T13:22:14.618Z,24.00
2018-06-05T13:24:42.781Z,24.50
2018-06-05T13:27:10.918Z,23.17
2018-06-05T13:29:39.033Z,23.67
2018-06-05T13:32:07.178Z,23.83
2018-06-05T13:34:35.305Z,23.57
2018-06-05T13:37:03.433Z,24.73
2018-06-05T13:39:31.553Z,22.70
2018-06-05T13:41:59.674Z,23.03
2018-06-05T13:44:27.774Z,22.20
2018-06-05T13:46:55.893Z,23.20
2018-06-05T13:49:24.003Z,23.40
2018-06-05T13:51:52.125Z,23.33
2018-06-05T13:54:20.242Z,22.10
2018-06-05T13:56:48.345Z,23.47
2018-06-05T13:59:16.474Z,26.80
2018-06-05T14:01:44.585Z,26.47
2018-06-05T14:04:12.697Z,23.27
2018-06-05T14:06:40.801Z,22.13
2018-06-05T14:09:08.967Z,21.47
2018-06-05T14:11:37.053Z,22.07
2018-06-05T14:14:05.161Z,22.47
2018-06-05T14:16:33.290Z,22.13
2018-06-05T14:19:01.424Z,22.93
2018-06-05T14:21:29.557Z,22.67
2018-06-05T14:23:57.674Z,22.20
2018-06-05T14:26:25.826Z,22.73
2018-06-05T14:28:53.996Z,23.10
2018-06-05T14:31:22.114Z,24.30
2018-06-05T14:33:50.209Z,23.57
2018-06-05T14:36:18.317Z,24.33
2018-06-05T14:38:46.429Z,23.27
2018-06-05T14:41:14.594Z,24.17
2018-06-05T14:43:42.713Z,23.63
2018-06-05T14:46:10.847Z,21.77
2018-06-05T14:48:38.963Z,22.60
2018-06-05T14:51:07.089Z,23.30
2018-06-05T14:53:35.229Z,22.97
2018-06-05T14:56:03.344Z,23.93
2018-06-05T14:58:31.451Z,22.40
2018-06-05T15:00:59.574Z,24.13
2018-06-05T15:03:27.706Z,23.13
2018-06-05T15:05:55.813Z,24.20
2018-06-05T15:08:23.925Z,23.97
2018-06-05T15:10:52.438Z,23.57
2018-06-05T15:13:20.542Z,25.73
2018-06-05T15:15:48.650Z,25.17
2018-06-05T15:18:16.769Z,25.67
2018-06-05T15:20:44.890Z,25.57
2018-06-05T15:23:13.000Z,24.80
2018-06-05T15:25:41.115Z,24.37
2018-06-05T15:28:09.245Z,23.73
2018-06-05T15:30:37.390Z,24.17
2018-06-05T15:33:05.489Z,26.47
2018-06-05T15:35:33.591Z,25.93
2018-06-05T15:38:01.710Z,25.00
2018-06-05T15:40:29.817Z,24.77
2018-06-05T15:42:57.989Z,25.23
2018-06-05T15:45:26.107Z,26.03
2018-06-05T15:47:54.213Z,25.13
2018-06-05T15:50:22.334Z,24.03
2018-06-05T15:52:50.436Z,25.77
2018-06-05T15:55:18.555Z,24.93
2018-06-05T15:57:46.687Z,24.57
2018-06-05T16:00:14.804Z,25.27
2018-06-05T16:02:42.933Z,24.90
2018-06-05T16:05:11.047Z,24.93
2018-06-05T16:07:39.180Z,24.80
2018-06-05T16:10:07.304Z,26.30
2018-06-05T16:12:35.422Z,25.57
2018-06-05T16:15:03.541Z,26.07
2018-06-05T16:17:31.654Z,25.10
2018-06-05T16:20:00.113Z,24.30
2018-06-05T16:22:28.226Z,24.33
2018-06-05T16:24:56.358Z,23.87
2018-06-05T16:27:24.466Z,24.40
2018-06-05T16:29:52.562Z,25.57
2018-06-05T16:32:20.698Z,24.93
2018-06-05T16:34:48.809Z,26.00
2018-06-05T16:37:16.942Z,23.83
2018-06-05T16:39:45.086Z,25.13
2018-06-05T16:42:13.186Z,23.70
2018-06-05T16:44:41.297Z,23.17
2018-06-05T16:47:09.410Z,24.33
2018-06-05T16:49:37.542Z,25.27
2018-06-05T16:52:05.647Z,25.27
2018-06-05T16:54:33.757Z,24.53
2018-06-05T16:57:01.882Z,22.53
2018-06-05T16:59:30.013Z,23.80
2018-06-05T17:01:58.121Z,22.80
2018-06-05T17:04:26.282Z,22.20
2018-06-05T17:06:54.353Z,21.87
2018-06-05T17:09:22.463Z,22.97
2018-06-05T17:11:50.589Z,22.37
2018-06-05T17:14:18.742Z,21.50
2018-06-05T17:16:46.888Z,20.70
2018-06-05T17:19:14.990Z,20.03
2018-06-05T17:21:43.101Z,19.83
2018-06-05T17:24:11.205Z,19.27
2018-06-05T17:26:39.318Z,19.00
2018-06-05T17:29:07.430Z,18.37
2018-06-05T17:31:35.554Z,17.80
2018-06-05T17:34:03.665Z,18.17
2018-06-05T17:36:31.774Z,18.10
2018-06-05T17:38:59.884Z,17.37
2018-06-05T17:41:27.987Z,16.77
2018-06-05T17:43:56.115Z,17.03
2018-06-05T17:46:24.218Z,17.13
2018-06-05T17:48:52.356Z,18.47
2018-06-05T17:51:20.473Z,17.50
2018-06-05T17:53:48.605Z,18.73
2018-06-05T17:56:16.710Z,17.83
2018-06-05T17:58:44.945Z,18.73
2018-06-05T18:01:13.050Z,18.07
2018-06-05T18:03:41.184Z,16.37
2018-06-05T18:06:09.300Z,17.47
2018-06-05T18:08:37.398Z,16.37
2018-06-05T18:11:05.518Z,16.87
2018-06-05T18:13:33.628Z,16.37
2018-06-05T18:16:01.738Z,17.53
2018-06-05T18:18:29.866Z,17.57
2018-06-05T18:20:57.977Z,17.00
2018-06-05T18:23:26.094Z,16.67
2018-06-05T18:25:54.214Z,16.57
2018-06-05T18:28:22.334Z,14.97
2018-06-05T18:30:50.906Z,15.20
2018-06-05T18:33:19.014Z,15.33
2018-06-05T18:35:47.144Z,15.73
2018-06-05T18:38:15.265Z,16.73
2018-06-05T18:40:43.398Z,14.77
2018-06-05T18:43:11.542Z,15.83
2018-06-05T18:45:39.654Z,15.57
2018-06-05T18:48:07.761Z,15.90
2018-06-05T18:50:35.905Z,15.07
2018-06-05T18:53:04.011Z,16.10
2018-06-05T18:55:32.144Z,15.80
2018-06-05T18:58:00.304Z,16.13
2018-06-05T19:00:28.518Z,14.27
2018-06-05T19:02:56.627Z,16.30
2018-06-05T19:05:25.522Z,16.13
2018-06-05T19:07:53.642Z,16.93
2018-06-05T19:10:21.792Z,16.17
2018-06-05T19:12:49.887Z,16.57
2018-06-05T19:15:17.991Z,17.27
2018-06-05T19:17:46.105Z,17.43
2018-06-05T19:20:14.230Z,16.77
2018-06-05T19:22:42.358Z,16.20
2018-06-05T19:25:10.486Z,16.17
2018-06-05T19:27:38.615Z,16.27
2018-06-05T19:30:06.768Z,15.80
2018-06-05T19:32:34.886Z,16.63
2018-06-05T19:35:02.989Z,15.50
2018-06-05T19:37:31.106Z,17.87
2018-06-05T19:39:59.237Z,17.60
2018-06-05T19:42:27.349Z,18.40
2018-06-05T19:44:55.473Z,17.43
2018-06-05T19:47:23.590Z,17.53
2018-06-05T19:49:51.713Z,16.77
2018-06-05T19:52:19.822Z,17.00
2018-06-05T19:54:47.930Z,17.80
2018-06-05T19:57:16.045Z,18.57
2018-06-05T19:59:44.441Z,17.47
2018-06-05T20:02:12.562Z,19.40
2018-06-05T20:04:40.670Z,19.07
2018-06-05T20:07:08.841Z,17.90
2018-06-05T20:09:37.005Z,18.27
2018-06-05T20:12:06.937Z,17.40
2018-06-05T20:14:35.042Z,17.40
2018-06-05T20:17:03.171Z,19.00
2018-06-05T20:19:31.341Z,18.57
2018-06-05T20:21:59.446Z,18.90
2018-06-05T20:24:27.574Z,18.97
2018-06-05T20:26:55.698Z,19.57
2018-06-05T20:29:23.826Z,19.83
2018-06-05T20:31:51.925Z,19.70
2018-06-05T20:34:20.026Z,19.77
2018-06-05T20:36:48.129Z,19.53
2018-06-05T20:39:16.257Z,19.20
2018-06-05T20:41:44.556Z,19.87
2018-06-05T20:44:12.681Z,20.03
2018-06-05T20:46:40.814Z,19.67
2018-06-05T20:49:08.950Z,19.43
2018-06-05T20:51:37.473Z,21.00
2018-06-05T20:54:05.641Z,19.93
2018-06-05T20:56:33.745Z,20.23
2018-06-05T20:59:01.845Z,20.90
2018-06-05T21:01:29.961Z,20.50
2018-06-05T21:03:58.126Z,20.50
2018-06-05T21:06:26.230Z,19.50
2018-06-05T21:08:54.345Z,20.83
2018-06-05T21:11:22.863Z,21.40
2018-06-05T21:13:50.970Z,21.23
2018-06-05T21:16:19.081Z,21.73
2018-06-05T21:18:47.193Z,21.53
2018-06-05T21:21:15.290Z,21.40
2018-06-05T21:23:43.401Z,21.07
2018-06-05T21:26:11.514Z,21.33
2018-06-05T21:28:39.625Z,22.53
2018-06-05T21:31:07.726Z,22.50
2018-06-05T21:33:35.824Z,21.90
2018-06-05T21:36:03.986Z,21.07
2018-06-05T21:38:32.133Z,22.00
2018-06-05T21:41:00.245Z,22.83
2018-06-05T21:43:28.390Z,21.80
2018-06-05T21:45:57.921Z,20.93
2018-06-05T21:48:26.057Z,22.23
2018-06-05T21:50:54.157Z,23.17
2018-06-05T21:53:22.258Z,21.93
2018-06-05T21:55:50.515Z,22.10
2018-06-05T21:58:18.889Z,23.07
2018-06-05T22:00:47.026Z,21.47
2018-06-05T22:03:15.129Z,22.13
2018-06-05T22:05:43.274Z,22.33
2018-06-05T22:08:11.402Z,23.07
2018-06-05T22:10:39.519Z,21.83
2018-06-05T22:13:07.609Z,22.23
2018-06-05T22:15:35.750Z,22.10
2018-06-05T22:18:03.838Z,22.87
2018-06-05T22:20:31.942Z,22.70
2018-06-05T22:23:00.041Z,23.03
2018-06-05T22:25:28.153Z,22.67
2018-06-05T22:27:56.261Z,22.07
2018-06-05T22:30:24.358Z,20.77
2018-06-05T22:32:52.453Z,21.03
2018-06-05T22:35:21.520Z,20.87
2018-06-05T22:37:49.681Z,20.87
2018-06-05T22:40:17.773Z,22.07
2018-06-05T22:42:45.874Z,20.83
2018-06-05T22:45:13.970Z,21.93
2018-06-05T22:47:42.074Z,21.33
2018-06-05T22:50:10.755Z,22.23
2018-06-05T22:52:39.038Z,21.50
2018-06-05T22:55:07.486Z,23.03
2018-06-05T22:57:35.585Z,22.40
2018-06-05T23:00:03.808Z,22.63
2018-06-05T23:02:31.941Z,22.77
2018-06-05T23:05:00.054Z,23.13
2018-06-05T23:07:28.149Z,22.73
2018-06-05T23:09:56.238Z,22.90
2018-06-05T23:12:24.497Z,22.53
2018-06-05T23:14:52.601Z,24.20
2018-06-05T23:17:20.705Z,23.60
2018-06-05T23:19:48.803Z,23.53
2018-06-05T23:22:16.942Z,22.73
2018-06-05T23:24:45.102Z,24.30
2018-06-05T23:27:14.057Z,24.17
2018-06-05T23:29:42.177Z,22.77
2018-06-05T23:32:10.294Z,23.40
2018-06-05T23:34:38.395Z,22.47
2018-06-05T23:37:06.489Z,23.50
2018-06-05T23:39:34.593Z,22.90
2018-06-05T23:42:02.706Z,22.43
2018-06-05T23:44:30.817Z,21.63
2018-06-05T23:46:58.918Z,21.80
2018-06-05T23:49:27.026Z,20.47
2018-06-05T23:51:58.938Z,21.40
2018-06-05T23:54:27.237Z,21.67
2018-06-05T23:56:55.361Z,24.03
2018-06-05T23:59:23.461Z,23.17
